createdAt,value
2019-05-02T00:00:44.462Z,9.32
2019-05-02T00:01:44.427Z,9.36
2019-05-02T00:02:44.417Z,9.33
2019-05-02T00:03:44.403Z,9.44
2019-05-02T00:04:44.390Z,9.33
2019-05-02T00:05:44.409Z,9.34
2019-05-02T00:06:44.368Z,9.34
2019-05-02T00:07:44.361Z,9.40
2019-05-02T00:08:44.345Z,9.40
2019-05-02T00:09:48.495Z,9.36
2019-05-02T00:10:44.352Z,9.34
2019-05-02T00:11:44.316Z,9.33
2019-05-02T00:12:44.303Z,9.33
2019-05-02T00:13:44.336Z,9.22
2019-05-02T00:14:44.278Z,9.12
2019-05-02T00:15:44.296Z,9.16
2019-05-02T00:16:45.046Z,9.11
2019-05-02T00:17:44.244Z,9.06
2019-05-02T00:18:44.241Z,9.08
2019-05-02T00:19:45.201Z,9.11
2019-05-02T00:20:44.259Z,9.04
2019-05-02T00:21:44.198Z,9.01
2019-05-02T00:22:48.009Z,8.95
2019-05-02T00:23:45.177Z,8.83
2019-05-02T00:24:44.167Z,8.83
2019-05-02T00:25:47.412Z,8.80
2019-05-02T00:26:44.146Z,8.83
2019-05-02T00:27:44.131Z,8.80
2019-05-02T00:28:47.914Z,8.77
2019-05-02T00:29:45.110Z,8.78
2019-05-02T00:30:44.122Z,8.88
2019-05-02T00:31:46.817Z,8.85
2019-05-02T00:32:44.082Z,8.86
2019-05-02T00:33:44.064Z,8.89
2019-05-02T00:34:44.052Z,8.88
2019-05-02T00:35:46.248Z,8.88
2019-05-02T00:36:44.029Z,8.96
2019-05-02T00:37:44.018Z,8.90
2019-05-02T00:38:44.012Z,8.89
2019-05-02T00:39:45.133Z,8.83
2019-05-02T00:40:46.338Z,8.86
2019-05-02T00:41:43.974Z,8.81
2019-05-02T00:42:43.961Z,8.90
2019-05-02T00:43:43.991Z,8.86
2019-05-02T00:44:46.998Z,8.83
2019-05-02T00:45:43.958Z,8.81
2019-05-02T00:46:43.916Z,8.77
2019-05-02T00:47:47.689Z,8.78
2019-05-02T00:48:44.896Z,8.70
2019-05-02T00:49:43.902Z,8.70
2019-05-02T00:50:45.414Z,8.68
2019-05-02T00:51:43.958Z,8.71
2019-05-02T00:52:43.848Z,8.68
2019-05-02T00:53:44.466Z,8.74
2019-05-02T00:54:43.839Z,8.71
2019-05-02T00:55:43.827Z,8.71
2019-05-02T00:56:45.267Z,8.71
2019-05-02T00:57:43.797Z,8.72
2019-05-02T00:58:43.782Z,8.68
2019-05-02T00:59:43.770Z,8.75
2019-05-02T01:00:43.759Z,8.67
2019-05-02T01:01:43.770Z,8.63
2019-05-02T01:02:43.737Z,8.65
2019-05-02T01:03:47.153Z,8.65
2019-05-02T01:04:43.716Z,8.60
2019-05-02T01:05:43.703Z,8.53
2019-05-02T01:06:44.736Z,8.57
2019-05-02T01:07:44.682Z,8.44
2019-05-02T01:08:43.677Z,8.41
2019-05-02T01:09:46.837Z,8.44
2019-05-02T01:10:43.646Z,8.50
2019-05-02T01:11:43.658Z,8.46
2019-05-02T01:12:44.513Z,8.50
2019-05-02T01:13:43.613Z,8.47
2019-05-02T01:14:43.605Z,8.56
2019-05-02T01:15:44.089Z,8.60
2019-05-02T01:16:43.603Z,8.57
2019-05-02T01:17:43.567Z,8.60
2019-05-02T01:18:43.559Z,8.63
2019-05-02T01:19:47.342Z,8.62
2019-05-02T01:20:43.536Z,8.65
2019-05-02T01:21:43.546Z,8.63
2019-05-02T01:22:47.150Z,8.65
2019-05-02T01:23:43.503Z,8.62
2019-05-02T01:24:43.488Z,8.67
2019-05-02T01:25:47.242Z,8.70
2019-05-02T01:26:43.515Z,8.55
2019-05-02T01:27:43.456Z,8.60
2019-05-02T01:28:43.465Z,8.55
2019-05-02T01:29:43.441Z,8.57
2019-05-02T01:30:43.868Z,8.50
2019-05-02T01:31:43.442Z,8.47
2019-05-02T01:32:43.398Z,8.46
2019-05-02T01:33:43.625Z,8.44
2019-05-02T01:34:43.376Z,8.42
2019-05-02T01:35:43.365Z,8.47
2019-05-02T01:36:43.376Z,8.44
2019-05-02T01:37:43.346Z,8.44
2019-05-02T01:38:43.332Z,8.47
2019-05-02T01:39:44.088Z,8.44
2019-05-02T01:40:43.308Z,8.49
2019-05-02T01:41:43.333Z,8.53
2019-05-02T01:42:44.545Z,8.62
2019-05-02T01:43:43.279Z,8.62
2019-05-02T01:44:43.261Z,8.60
2019-05-02T01:45:46.646Z,8.59
2019-05-02T01:46:43.240Z,8.68
2019-05-02T01:47:43.252Z,8.68
2019-05-02T01:48:45.637Z,8.70
2019-05-02T01:49:43.209Z,8.71
2019-05-02T01:50:43.193Z,8.72
2019-05-02T01:51:47.444Z,8.74
2019-05-02T01:52:43.201Z,8.55
2019-05-02T01:53:43.163Z,8.59
2019-05-02T01:54:45.747Z,8.65
2019-05-02T01:55:43.139Z,8.60
2019-05-02T01:56:43.128Z,8.60
2019-05-02T01:57:44.761Z,8.74
2019-05-02T01:58:43.102Z,8.68
2019-05-02T01:59:43.092Z,8.70
2019-05-02T02:00:44.737Z,8.57
2019-05-02T02:01:43.070Z,8.71
2019-05-02T02:02:43.080Z,8.70
2019-05-02T02:03:45.570Z,8.57
2019-05-02T02:04:43.035Z,8.63
2019-05-02T02:05:43.024Z,8.62
2019-05-02T02:06:44.881Z,8.56
2019-05-02T02:07:43.024Z,8.55
2019-05-02T02:08:42.993Z,8.49
2019-05-02T02:09:44.040Z,8.37
2019-05-02T02:10:43.939Z,8.35
2019-05-02T02:11:42.956Z,8.28
2019-05-02T02:13:02.214Z,8.20
2019-05-02T02:13:42.936Z,8.05
2019-05-02T02:14:42.925Z,8.05
2019-05-02T02:15:42.915Z,8.09
2019-05-02T02:16:42.899Z,7.99
2019-05-02T02:17:46.857Z,8.04
2019-05-02T02:18:42.879Z,8.05
2019-05-02T02:19:42.868Z,7.96
2019-05-02T02:20:45.196Z,7.95
2019-05-02T02:21:43.206Z,7.92
2019-05-02T02:22:42.855Z,7.91
2019-05-02T02:23:45.075Z,7.88
2019-05-02T02:24:43.809Z,7.83
2019-05-02T02:25:42.798Z,7.78
2019-05-02T02:26:43.548Z,7.81
2019-05-02T02:27:42.800Z,7.81
2019-05-02T02:28:42.768Z,7.81
2019-05-02T02:29:44.120Z,7.71
2019-05-02T02:30:42.748Z,7.83
2019-05-02T02:31:46.886Z,7.84
2019-05-02T02:32:42.743Z,7.80
2019-05-02T02:33:47.920Z,7.78
2019-05-02T02:34:42.704Z,7.86
2019-05-02T02:35:49.461Z,7.83
2019-05-02T02:36:42.677Z,7.95
2019-05-02T02:37:52.055Z,7.91
2019-05-02T02:38:42.655Z,7.98
2019-05-02T02:39:48.567Z,7.88
2019-05-02T02:40:42.633Z,7.96
2019-05-02T02:41:45.313Z,8.01
2019-05-02T02:42:42.633Z,8.04
2019-05-02T02:43:42.609Z,7.99
2019-05-02T02:44:42.584Z,8.01
2019-05-02T02:45:42.580Z,8.06
2019-05-02T02:46:42.562Z,7.92
2019-05-02T02:47:42.576Z,7.91
2019-05-02T02:48:42.943Z,7.83
2019-05-02T02:49:42.531Z,7.86
2019-05-02T02:50:44.894Z,7.84
2019-05-02T02:51:42.512Z,7.86
2019-05-02T02:52:44.477Z,7.83
2019-05-02T02:53:42.484Z,7.84
2019-05-02T02:54:43.692Z,7.73
2019-05-02T02:55:42.461Z,7.71
2019-05-02T02:56:42.713Z,7.68
2019-05-02T02:57:42.439Z,7.61
2019-05-02T02:58:47.652Z,7.58
2019-05-02T02:59:43.420Z,7.60
2019-05-02T03:00:47.566Z,7.64
2019-05-02T03:01:42.400Z,7.68
2019-05-02T03:02:47.827Z,7.57
2019-05-02T03:03:42.404Z,7.61
2019-05-02T03:04:44.058Z,7.58
2019-05-02T03:05:42.347Z,7.57
2019-05-02T03:06:44.879Z,7.60
2019-05-02T03:07:42.330Z,7.54
2019-05-02T03:08:46.083Z,7.57
2019-05-02T03:09:42.305Z,7.54
2019-05-02T03:10:45.063Z,7.66
2019-05-02T03:11:42.281Z,7.44
2019-05-02T03:12:43.171Z,7.46
2019-05-02T03:13:52.417Z,7.46
2019-05-02T03:14:47.089Z,7.49
2019-05-02T03:15:42.237Z,7.49
2019-05-02T03:16:47.055Z,7.43
2019-05-02T03:17:42.219Z,7.44
2019-05-02T03:18:43.330Z,7.52
2019-05-02T03:19:42.191Z,7.50
2019-05-02T03:20:42.219Z,7.47
2019-05-02T03:21:42.169Z,7.52
2019-05-02T03:22:43.705Z,7.57
2019-05-02T03:23:42.170Z,7.61
2019-05-02T03:24:44.111Z,7.58
2019-05-02T03:25:50.550Z,7.57
2019-05-02T03:26:42.115Z,7.76
2019-05-02T03:27:42.104Z,7.71
2019-05-02T03:28:42.120Z,7.73
2019-05-02T03:29:44.504Z,7.68
2019-05-02T03:30:42.072Z,7.71
2019-05-02T03:31:42.064Z,7.80
2019-05-02T03:33:02.548Z,7.76
2019-05-02T03:33:54.763Z,7.64
2019-05-02T03:34:48.470Z,7.68
2019-05-02T03:35:48.662Z,7.76
2019-05-02T03:36:42.008Z,7.78
2019-05-02T03:37:44.658Z,7.80
2019-05-02T03:38:42.005Z,7.86
2019-05-02T03:39:42.037Z,7.78
2019-05-02T03:40:41.958Z,7.87
2019-05-02T03:41:41.946Z,7.87
2019-05-02T03:42:44.679Z,7.87
2019-05-02T03:43:42.049Z,7.84
2019-05-02T03:44:41.917Z,7.98
2019-05-02T03:45:43.119Z,7.81
2019-05-02T03:46:41.896Z,7.78
2019-05-02T03:47:43.533Z,7.87
2019-05-02T03:48:41.898Z,7.86
2019-05-02T03:49:48.560Z,7.84
2019-05-02T03:50:42.849Z,7.74
2019-05-02T03:51:41.834Z,7.73
2019-05-02T03:52:43.654Z,7.68
2019-05-02T03:53:41.836Z,7.66
2019-05-02T03:54:50.148Z,7.68
2019-05-02T03:55:42.792Z,7.61
2019-05-02T03:56:44.833Z,7.69
2019-05-02T03:57:42.436Z,7.73
2019-05-02T03:58:48.719Z,7.62
2019-05-02T03:59:42.006Z,7.61
2019-05-02T04:00:41.745Z,7.60
2019-05-02T04:01:43.154Z,7.60
2019-05-02T04:02:41.712Z,7.57
2019-05-02T04:03:43.795Z,7.60
2019-05-02T04:04:41.690Z,7.60
2019-05-02T04:05:42.322Z,7.58
2019-05-02T04:06:41.667Z,7.62
2019-05-02T04:07:42.315Z,7.62
2019-05-02T04:08:41.655Z,7.57
2019-05-02T04:09:42.526Z,7.52
2019-05-02T04:10:41.624Z,7.55
2019-05-02T04:11:41.613Z,7.60
2019-05-02T04:12:41.601Z,7.50
2019-05-02T04:13:41.592Z,7.46
2019-05-02T04:14:41.609Z,7.50
2019-05-02T04:15:41.569Z,7.47
2019-05-02T04:16:41.565Z,7.54
2019-05-02T04:17:41.547Z,7.52
2019-05-02T04:18:41.538Z,7.57
2019-05-02T04:19:41.549Z,7.66
2019-05-02T04:20:43.530Z,7.64
2019-05-02T04:21:41.507Z,7.60
2019-05-02T04:22:42.795Z,7.66
2019-05-02T04:23:41.491Z,7.64
2019-05-02T04:24:41.491Z,7.57
2019-05-02T04:25:42.272Z,7.58
2019-05-02T04:26:51.990Z,7.57
2019-05-02T04:27:41.439Z,7.66
2019-05-02T04:28:45.648Z,7.64
2019-05-02T04:29:41.439Z,7.71
2019-05-02T04:30:45.202Z,7.74
2019-05-02T04:31:41.394Z,7.87
2019-05-02T04:32:43.147Z,7.86
2019-05-02T04:33:41.370Z,7.78
2019-05-02T04:34:41.380Z,7.92
2019-05-02T04:35:41.344Z,7.84
2019-05-02T04:36:45.674Z,7.81
2019-05-02T04:37:43.738Z,7.86
2019-05-02T04:38:46.937Z,7.78
2019-05-02T04:39:41.329Z,7.78
2019-05-02T04:40:46.438Z,7.87
2019-05-02T04:41:42.610Z,7.95
2019-05-02T04:42:41.270Z,7.80
2019-05-02T04:43:51.452Z,7.81
2019-05-02T04:45:07.549Z,7.95
2019-05-02T04:45:55.342Z,7.94
2019-05-02T04:46:41.228Z,7.96
2019-05-02T04:47:42.519Z,8.02
2019-05-02T04:48:48.636Z,8.02
2019-05-02T04:49:41.215Z,8.04
2019-05-02T04:50:41.178Z,8.01
2019-05-02T04:51:41.168Z,8.10
2019-05-02T04:52:48.338Z,8.01
2019-05-02T04:53:45.019Z,8.09
2019-05-02T04:54:41.169Z,8.04
2019-05-02T04:55:41.126Z,8.10
2019-05-02T04:56:49.685Z,8.13
2019-05-02T04:57:47.066Z,8.12
2019-05-02T04:58:42.095Z,8.02
2019-05-02T04:59:41.108Z,8.17
2019-05-02T05:00:45.213Z,8.14
2019-05-02T05:01:49.121Z,8.09
2019-05-02T05:02:41.049Z,8.17
2019-05-02T05:03:41.038Z,8.17
2019-05-02T05:04:46.113Z,8.16
2019-05-02T05:05:42.021Z,8.10
2019-05-02T05:06:52.487Z,8.28
2019-05-02T05:07:46.100Z,8.19
2019-05-02T05:08:41.781Z,8.28
2019-05-02T05:09:50.060Z,8.23
2019-05-02T05:10:44.936Z,8.20
2019-05-02T05:11:40.948Z,8.21
2019-05-02T05:12:41.943Z,8.28
2019-05-02T05:13:40.924Z,8.23
2019-05-02T05:14:43.301Z,8.28
2019-05-02T05:15:48.472Z,8.28
2019-05-02T05:16:45.370Z,8.16
2019-05-02T05:17:40.880Z,8.20
2019-05-02T05:18:43.997Z,8.21
2019-05-02T05:19:40.880Z,8.28
2019-05-02T05:20:45.309Z,8.26
2019-05-02T05:21:41.835Z,8.23
2019-05-02T05:22:44.282Z,8.20
2019-05-02T05:23:40.809Z,8.23
2019-05-02T05:24:42.456Z,8.20
2019-05-02T05:25:40.787Z,8.31
2019-05-02T05:26:42.948Z,8.28
2019-05-02T05:27:40.767Z,8.29
2019-05-02T05:28:44.353Z,8.32
2019-05-02T05:29:40.767Z,8.34
2019-05-02T05:30:45.329Z,8.34
2019-05-02T05:31:40.723Z,8.34
2019-05-02T05:32:40.723Z,8.44
2019-05-02T05:33:40.724Z,8.39
2019-05-02T05:34:40.708Z,8.46
2019-05-02T05:35:43.177Z,8.42
2019-05-02T05:36:41.666Z,8.55
2019-05-02T05:37:43.295Z,8.44
2019-05-02T05:38:40.849Z,8.60
2019-05-02T05:39:43.147Z,8.52
2019-05-02T05:40:40.753Z,8.62
2019-05-02T05:41:42.764Z,8.62
2019-05-02T05:42:40.602Z,8.67
2019-05-02T05:43:44.809Z,8.55
2019-05-02T05:44:40.602Z,8.68
2019-05-02T05:45:50.705Z,8.71
2019-05-02T05:46:42.539Z,8.72
2019-05-02T05:47:40.540Z,8.71
2019-05-02T05:48:40.832Z,8.86
2019-05-02T05:49:40.543Z,8.75
2019-05-02T05:50:41.532Z,8.90
2019-05-02T05:51:40.495Z,8.81
2019-05-02T05:52:42.375Z,8.85
2019-05-02T05:53:40.473Z,8.85
2019-05-02T05:54:41.969Z,8.95
2019-05-02T05:55:40.456Z,8.98
2019-05-02T05:56:43.195Z,9.03
2019-05-02T05:57:40.426Z,9.01
2019-05-02T05:58:50.488Z,8.96
2019-05-02T05:59:40.440Z,9.04
2019-05-02T06:00:40.423Z,9.16
2019-05-02T06:01:40.391Z,9.04
2019-05-02T06:02:52.695Z,9.14
2019-05-02T06:03:44.570Z,9.19
2019-05-02T06:04:40.371Z,9.29
2019-05-02T06:05:41.008Z,9.22
2019-05-02T06:06:40.329Z,9.26
2019-05-02T06:07:44.015Z,9.33
2019-05-02T06:08:40.302Z,9.30
2019-05-02T06:09:40.317Z,9.30
2019-05-02T06:10:43.929Z,9.33
2019-05-02T06:11:40.296Z,9.42
2019-05-02T06:12:40.267Z,9.52
2019-05-02T06:13:42.984Z,9.47
2019-05-02T06:14:40.291Z,9.57
2019-05-02T06:15:40.565Z,9.57
2019-05-02T06:16:40.215Z,9.57
2019-05-02T06:17:40.203Z,9.62
2019-05-02T06:18:41.896Z,9.63
2019-05-02T06:19:40.178Z,9.66
2019-05-02T06:20:40.191Z,9.66
2019-05-02T06:21:45.091Z,9.75
2019-05-02T06:22:40.162Z,9.75
2019-05-02T06:23:41.594Z,9.78
2019-05-02T06:24:40.125Z,9.83
2019-05-02T06:25:42.483Z,9.84
2019-05-02T06:26:40.099Z,9.91
2019-05-02T06:27:40.089Z,9.94
2019-05-02T06:28:41.518Z,9.99
2019-05-02T06:29:40.071Z,10.05
2019-05-02T06:30:40.080Z,10.01
2019-05-02T06:31:43.176Z,9.99
2019-05-02T06:32:40.032Z,10.08
2019-05-02T06:33:40.021Z,10.12
2019-05-02T06:34:46.374Z,10.10
2019-05-02T06:35:40.034Z,10.05
2019-05-02T06:36:39.988Z,10.20
2019-05-02T06:37:40.811Z,10.12
2019-05-02T06:38:39.962Z,10.26
2019-05-02T06:39:39.952Z,10.09
2019-05-02T06:40:44.888Z,10.27
2019-05-02T06:41:39.932Z,10.27
2019-05-02T06:42:39.933Z,10.26
2019-05-02T06:43:41.141Z,10.30
2019-05-02T06:44:40.898Z,10.41
2019-05-02T06:45:39.910Z,10.38
2019-05-02T06:46:39.873Z,10.38
2019-05-02T06:47:41.815Z,10.38
2019-05-02T06:48:39.851Z,10.41
2019-05-02T06:49:39.840Z,10.31
2019-05-02T06:50:40.616Z,10.28
2019-05-02T06:51:39.817Z,10.36
2019-05-02T06:52:39.811Z,10.31
2019-05-02T06:53:41.445Z,10.41
2019-05-02T06:54:39.785Z,10.39
2019-05-02T06:55:39.773Z,10.43
2019-05-02T06:56:43.019Z,10.42
2019-05-02T06:57:39.751Z,10.41
2019-05-02T06:58:42.012Z,10.46
2019-05-02T06:59:39.730Z,10.52
2019-05-02T07:00:56.053Z,10.58
2019-05-02T07:01:39.737Z,10.60
2019-05-02T07:02:39.695Z,10.64
2019-05-02T07:03:41.445Z,10.60
2019-05-02T07:04:39.674Z,10.72
2019-05-02T07:05:39.658Z,10.72
2019-05-02T07:06:50.092Z,10.70
2019-05-02T07:07:39.647Z,10.79
2019-05-02T07:08:39.678Z,10.80
2019-05-02T07:09:41.230Z,10.87
2019-05-02T07:10:44.821Z,10.87
2019-05-02T07:11:40.994Z,10.95
2019-05-02T07:12:39.582Z,11.00
2019-05-02T07:13:41.989Z,10.98
2019-05-02T07:14:39.557Z,11.05
2019-05-02T07:15:40.567Z,11.11
2019-05-02T07:16:39.559Z,11.19
2019-05-02T07:17:39.525Z,11.13
2019-05-02T07:18:42.024Z,11.19
2019-05-02T07:19:39.515Z,11.22
2019-05-02T07:20:40.644Z,11.16
2019-05-02T07:21:39.505Z,11.19
2019-05-02T07:22:40.833Z,11.16
2019-05-02T07:23:39.455Z,11.09
2019-05-02T07:24:39.445Z,11.15
2019-05-02T07:25:43.922Z,11.19
2019-05-02T07:26:39.447Z,11.22
2019-05-02T07:27:39.513Z,11.20
2019-05-02T07:28:40.315Z,11.20
2019-05-02T07:29:39.391Z,11.16
2019-05-02T07:30:39.378Z,11.18
2019-05-02T07:31:42.897Z,11.16
2019-05-02T07:32:39.358Z,11.20
2019-05-02T07:33:39.343Z,11.28
2019-05-02T07:34:39.336Z,11.31
2019-05-02T07:35:39.323Z,11.30
2019-05-02T07:36:39.336Z,11.27
2019-05-02T07:37:39.300Z,11.30
2019-05-02T07:38:39.300Z,11.25
2019-05-02T07:39:40.966Z,11.36
2019-05-02T07:40:39.268Z,11.40
2019-05-02T07:41:39.284Z,11.45
2019-05-02T07:42:41.952Z,11.43
2019-05-02T07:43:39.236Z,11.45
2019-05-02T07:44:39.234Z,11.45
2019-05-02T07:45:40.196Z,11.51
2019-05-02T07:46:51.146Z,11.59
2019-05-02T07:47:40.331Z,11.61
2019-05-02T07:48:39.178Z,11.61
2019-05-02T07:49:39.167Z,11.61
2019-05-02T07:50:41.322Z,11.67
2019-05-02T07:51:39.147Z,11.64
2019-05-02T07:52:41.056Z,11.64
2019-05-02T07:53:39.121Z,11.64
2019-05-02T07:54:39.112Z,11.62
2019-05-02T07:55:40.843Z,11.58
2019-05-02T07:56:39.092Z,11.66
2019-05-02T07:57:39.118Z,11.66
2019-05-02T07:58:46.644Z,11.69
2019-05-02T07:59:39.057Z,11.69
2019-05-02T08:00:39.047Z,11.59
2019-05-02T08:01:39.038Z,11.62
2019-05-02T08:02:39.065Z,11.52
2019-05-02T08:03:39.016Z,11.61
2019-05-02T08:04:43.525Z,11.56
2019-05-02T08:05:39.988Z,11.54
2019-05-02T08:06:40.063Z,11.59
2019-05-02T08:07:39.007Z,11.55
2019-05-02T08:08:38.960Z,11.58
2019-05-02T08:09:39.357Z,11.58
2019-05-02T08:10:38.937Z,11.58
2019-05-02T08:11:38.958Z,11.67
2019-05-02T08:12:38.937Z,11.73
2019-05-02T08:13:38.909Z,11.73
2019-05-02T08:14:38.892Z,11.84
2019-05-02T08:15:38.881Z,11.82
2019-05-02T08:16:38.867Z,11.89
2019-05-02T08:17:38.876Z,11.85
2019-05-02T08:18:38.847Z,11.85
2019-05-02T08:19:41.705Z,11.88
2019-05-02T08:20:38.822Z,11.91
2019-05-02T08:21:38.811Z,11.82
2019-05-02T08:22:38.828Z,11.89
2019-05-02T08:23:38.794Z,11.91
2019-05-02T08:24:39.328Z,11.88
2019-05-02T08:25:41.470Z,11.80
2019-05-02T08:26:38.757Z,11.93
2019-05-02T08:27:38.767Z,11.88
2019-05-02T08:28:38.735Z,11.97
2019-05-02T08:29:38.721Z,11.99
2019-05-02T08:30:40.473Z,12.05
2019-05-02T08:31:38.710Z,12.05
2019-05-02T08:32:38.708Z,12.13
2019-05-02T08:33:38.675Z,12.04
2019-05-02T08:34:38.664Z,12.08
2019-05-02T08:35:38.653Z,12.10
2019-05-02T08:36:38.641Z,12.15
2019-05-02T08:37:40.977Z,12.10
2019-05-02T08:38:38.618Z,12.08
2019-05-02T08:39:38.628Z,12.18
2019-05-02T08:40:42.404Z,12.22
2019-05-02T08:41:38.597Z,12.26
2019-05-02T08:42:38.597Z,12.21
2019-05-02T08:43:40.183Z,12.23
2019-05-02T08:44:50.296Z,12.29
2019-05-02T08:45:39.606Z,12.30
2019-05-02T08:46:38.534Z,12.40
2019-05-02T08:47:38.544Z,12.43
2019-05-02T08:48:41.956Z,12.50
2019-05-02T08:49:38.503Z,12.44
2019-05-02T08:50:38.485Z,12.61
2019-05-02T08:51:38.474Z,12.58
2019-05-02T08:52:42.409Z,12.54
2019-05-02T08:53:38.482Z,12.63
2019-05-02T08:54:38.442Z,12.61
2019-05-02T08:55:41.364Z,12.63
2019-05-02T08:56:38.420Z,12.80
2019-05-02T08:57:38.442Z,12.72
2019-05-02T08:58:38.406Z,12.79
2019-05-02T08:59:40.822Z,12.81
2019-05-02T09:00:39.543Z,12.91
2019-05-02T09:01:38.362Z,12.95
2019-05-02T09:02:41.609Z,12.99
2019-05-02T09:03:54.852Z,13.05
2019-05-02T09:04:39.330Z,13.20
2019-05-02T09:05:45.522Z,13.27
2019-05-02T09:06:38.311Z,13.30
2019-05-02T09:07:39.362Z,13.43
2019-05-02T09:08:38.310Z,13.46
2019-05-02T09:09:38.272Z,13.63
2019-05-02T09:10:42.201Z,13.60
2019-05-02T09:11:38.523Z,13.67
2019-05-02T09:12:42.062Z,13.71
2019-05-02T09:13:38.255Z,13.73
2019-05-02T09:14:38.223Z,13.72
2019-05-02T09:15:40.396Z,13.76
2019-05-02T09:16:38.200Z,13.73
2019-05-02T09:17:39.077Z,13.65
2019-05-02T09:18:43.407Z,13.83
2019-05-02T09:19:38.165Z,13.79
2019-05-02T09:20:38.152Z,13.85
2019-05-02T09:21:38.152Z,13.72
2019-05-02T09:22:38.130Z,13.85
2019-05-02T09:23:41.129Z,13.85
2019-05-02T09:24:38.106Z,13.88
2019-05-02T09:25:38.099Z,13.86
2019-05-02T09:26:38.824Z,13.94
2019-05-02T09:27:38.072Z,14.00
2019-05-02T09:28:38.086Z,14.08
2019-05-02T09:29:44.499Z,13.97
2019-05-02T09:30:38.040Z,14.12
2019-05-02T09:31:42.210Z,14.15
2019-05-02T09:32:39.036Z,14.13
2019-05-02T09:33:45.163Z,14.21
2019-05-02T09:34:37.998Z,14.28
2019-05-02T09:35:37.983Z,14.28
2019-05-02T09:36:38.266Z,14.33
2019-05-02T09:37:37.969Z,14.30
2019-05-02T09:38:37.975Z,14.33
2019-05-02T09:39:37.945Z,14.33
2019-05-02T09:40:37.929Z,14.33
2019-05-02T09:41:37.916Z,14.34
2019-05-02T09:42:37.904Z,14.38
2019-05-02T09:43:39.222Z,14.52
2019-05-02T09:44:37.889Z,14.49
2019-05-02T09:45:41.021Z,14.55
2019-05-02T09:46:37.863Z,14.59
2019-05-02T09:47:53.188Z,14.69
2019-05-02T09:48:37.865Z,14.67
2019-05-02T09:49:41.754Z,14.73
2019-05-02T09:50:38.506Z,14.66
2019-05-02T09:51:37.806Z,14.61
2019-05-02T09:52:39.526Z,14.77
2019-05-02T09:53:37.806Z,14.78
2019-05-02T09:54:42.504Z,14.86
2019-05-02T09:55:42.309Z,14.82
2019-05-02T09:56:37.756Z,14.85
2019-05-02T09:57:37.740Z,14.85
2019-05-02T09:58:37.777Z,14.87
2019-05-02T09:59:37.718Z,14.97
2019-05-02T10:00:37.706Z,14.83
2019-05-02T10:01:37.696Z,14.82
2019-05-02T10:02:37.686Z,14.92
2019-05-02T10:03:37.693Z,14.85
2019-05-02T10:04:37.662Z,14.83
2019-05-02T10:05:37.661Z,14.99
2019-05-02T10:06:37.645Z,15.07
2019-05-02T10:07:37.626Z,15.19
2019-05-02T10:08:38.267Z,15.25
2019-05-02T10:09:37.615Z,15.38
2019-05-02T10:10:44.168Z,15.36
2019-05-02T10:11:38.583Z,15.41
2019-05-02T10:12:37.576Z,15.52
2019-05-02T10:13:37.583Z,15.54
2019-05-02T10:14:37.550Z,15.65
2019-05-02T10:15:37.542Z,15.72
2019-05-02T10:16:37.538Z,15.68
2019-05-02T10:17:42.222Z,15.66
2019-05-02T10:18:37.524Z,15.56
2019-05-02T10:19:41.179Z,15.52
2019-05-02T10:20:37.484Z,15.52
2019-05-02T10:21:37.476Z,15.50
2019-05-02T10:22:39.291Z,15.45
2019-05-02T10:23:37.447Z,15.43
2019-05-02T10:24:37.483Z,15.50
2019-05-02T10:25:38.921Z,15.59
2019-05-02T10:26:37.414Z,15.73
2019-05-02T10:27:38.483Z,15.77
2019-05-02T10:28:41.786Z,15.88
2019-05-02T10:29:37.407Z,16.13
2019-05-02T10:30:37.368Z,16.28
2019-05-02T10:31:37.922Z,16.36
2019-05-02T10:32:37.350Z,16.26
2019-05-02T10:33:37.746Z,16.33
2019-05-02T10:34:37.346Z,16.37
2019-05-02T10:35:40.598Z,16.58
2019-05-02T10:36:37.305Z,16.54
2019-05-02T10:37:38.292Z,16.70
2019-05-02T10:38:37.291Z,16.83
2019-05-02T10:39:37.964Z,16.90
2019-05-02T10:40:37.259Z,16.94
2019-05-02T10:41:39.379Z,16.87
2019-05-02T10:42:37.244Z,16.98
2019-05-02T10:43:37.222Z,17.14
2019-05-02T10:44:37.241Z,17.24
2019-05-02T10:45:37.203Z,17.43
2019-05-02T10:46:37.868Z,17.35
2019-05-02T10:47:37.179Z,17.47
2019-05-02T10:48:37.168Z,17.56
2019-05-02T10:49:37.182Z,17.62
2019-05-02T10:50:37.145Z,17.78
2019-05-02T10:51:41.715Z,17.91
2019-05-02T10:52:37.129Z,17.90
2019-05-02T10:53:37.119Z,17.79
2019-05-02T10:54:37.498Z,17.83
2019-05-02T10:55:37.093Z,18.09
2019-05-02T10:56:37.081Z,18.18
2019-05-02T10:57:37.070Z,18.31
2019-05-02T10:58:37.063Z,18.38
2019-05-02T10:59:37.072Z,18.42
2019-05-02T11:00:37.039Z,18.51
2019-05-02T11:01:37.027Z,18.66
2019-05-02T11:02:37.017Z,18.63
2019-05-02T11:03:38.046Z,18.76
2019-05-02T11:04:37.021Z,18.71
2019-05-02T11:05:37.444Z,18.91
2019-05-02T11:06:41.538Z,18.88
2019-05-02T11:07:36.967Z,18.93
2019-05-02T11:08:41.364Z,18.98
2019-05-02T11:09:37.965Z,18.78
2019-05-02T11:10:36.929Z,18.78
2019-05-02T11:11:36.917Z,18.86
2019-05-02T11:12:46.082Z,18.89
2019-05-02T11:13:36.897Z,19.00
2019-05-02T11:14:36.917Z,18.97
2019-05-02T11:15:36.877Z,18.96
2019-05-02T11:16:36.861Z,19.15
2019-05-02T11:17:36.852Z,19.20
2019-05-02T11:18:42.385Z,19.24
2019-05-02T11:19:36.869Z,19.27
2019-05-02T11:20:36.820Z,19.45
2019-05-02T11:21:36.840Z,19.47
2019-05-02T11:22:36.802Z,19.57
2019-05-02T11:23:36.818Z,19.53
2019-05-02T11:24:36.771Z,19.62
2019-05-02T11:25:36.785Z,19.75
2019-05-02T11:26:36.774Z,19.72
2019-05-02T11:27:36.743Z,19.70
2019-05-02T11:28:36.730Z,19.67
2019-05-02T11:29:36.743Z,19.59
2019-05-02T11:30:36.751Z,19.81
2019-05-02T11:31:36.695Z,19.75
2019-05-02T11:32:36.685Z,19.87
2019-05-02T11:33:36.675Z,19.92
2019-05-02T11:34:36.664Z,20.11
2019-05-02T11:35:36.679Z,20.33
2019-05-02T11:36:36.685Z,20.36
2019-05-02T11:37:36.634Z,20.50
2019-05-02T11:38:37.214Z,20.60
2019-05-02T11:39:44.699Z,20.64
2019-05-02T11:40:36.624Z,20.49
2019-05-02T11:41:36.588Z,20.48
2019-05-02T11:42:36.579Z,20.74
2019-05-02T11:43:37.160Z,20.80
2019-05-02T11:44:36.555Z,21.08
2019-05-02T11:45:36.571Z,21.34
2019-05-02T11:46:37.483Z,21.67
2019-05-02T11:47:36.534Z,21.90
2019-05-02T11:48:36.513Z,22.04
2019-05-02T11:49:36.503Z,22.22
2019-05-02T11:50:36.519Z,22.38
2019-05-02T11:51:36.483Z,22.52
2019-05-02T11:52:37.541Z,22.68
2019-05-02T11:53:36.469Z,23.14
2019-05-02T11:54:39.309Z,23.42
2019-05-02T11:55:36.469Z,23.92
2019-05-02T11:56:42.967Z,24.23
2019-05-02T11:57:37.425Z,24.55
2019-05-02T11:58:42.400Z,25.14
2019-05-02T11:59:36.406Z,25.81
2019-05-02T12:00:39.755Z,26.26
2019-05-02T12:01:39.763Z,26.58
2019-05-02T12:02:36.371Z,26.97
2019-05-02T12:03:37.075Z,27.26
2019-05-02T12:04:36.357Z,27.23
2019-05-02T12:05:39.159Z,27.04
2019-05-02T12:06:36.335Z,26.67
2019-05-02T12:07:36.326Z,26.31
2019-05-02T12:08:39.421Z,26.12
2019-05-02T12:09:36.306Z,26.04
2019-05-02T12:10:36.745Z,25.98
2019-05-02T12:11:36.282Z,25.85
2019-05-02T12:12:36.476Z,25.64
2019-05-02T12:13:36.263Z,25.27
2019-05-02T12:14:36.603Z,24.99
2019-05-02T12:15:36.264Z,24.56
2019-05-02T12:16:36.231Z,24.31
2019-05-02T12:17:36.219Z,24.43
2019-05-02T12:18:36.214Z,24.51
2019-05-02T12:19:36.199Z,24.51
2019-05-02T12:20:36.855Z,24.53
2019-05-02T12:21:39.052Z,24.41
2019-05-02T12:22:36.172Z,24.08
2019-05-02T12:23:36.489Z,23.76
2019-05-02T12:24:40.348Z,23.66
2019-05-02T12:25:36.167Z,23.52
2019-05-02T12:26:36.127Z,23.28
2019-05-02T12:27:36.120Z,23.17
2019-05-02T12:28:36.109Z,23.10
2019-05-02T12:29:36.096Z,22.99
2019-05-02T12:30:37.811Z,22.91
2019-05-02T12:31:36.078Z,22.73
2019-05-02T12:32:36.065Z,22.53
2019-05-02T12:33:36.056Z,22.28
2019-05-02T12:34:36.046Z,22.07
2019-05-02T12:35:36.059Z,21.91
2019-05-02T12:36:36.024Z,21.94
2019-05-02T12:37:36.012Z,21.91
2019-05-02T12:38:36.005Z,21.60
2019-05-02T12:39:35.994Z,21.43
2019-05-02T12:40:36.010Z,21.25
2019-05-02T12:41:35.970Z,21.10
2019-05-02T12:42:36.045Z,20.93
2019-05-02T12:43:35.952Z,20.83
2019-05-02T12:44:35.936Z,20.68
2019-05-02T12:45:35.952Z,20.60
2019-05-02T12:46:35.927Z,20.56
2019-05-02T12:47:35.904Z,20.39
2019-05-02T12:48:35.892Z,20.52
2019-05-02T12:49:35.882Z,20.41
2019-05-02T12:50:35.904Z,20.36
2019-05-02T12:51:35.864Z,20.50
2019-05-02T12:52:35.848Z,20.56
2019-05-02T12:53:35.836Z,20.73
2019-05-02T12:54:35.825Z,20.97
2019-05-02T12:55:35.844Z,20.93
2019-05-02T12:56:35.804Z,21.11
2019-05-02T12:57:35.792Z,21.10
2019-05-02T12:58:35.782Z,21.00
2019-05-02T12:59:35.769Z,20.97
2019-05-02T13:00:35.794Z,21.07
2019-05-02T13:01:35.755Z,21.08
2019-05-02T13:02:35.747Z,21.10
2019-05-02T13:03:35.726Z,20.89
2019-05-02T13:04:35.728Z,21.00
2019-05-02T13:05:35.702Z,20.79